Wetterdaten: Woche 09.07.12 - 15.07.12 (KW28)
Datum Zeit Temperatur Luftfeuchte Luftdruck Niederschlag Windrichtung Sonnenschein Solar Wind
09.07.2012 00:00 18,1 C 75 % 1012,1 hPa 0,0 l/m W-NW 0,00 h 0 W/m 3,5 km/h (1 Bft)
09.07.2012 01:00 17,6 C 80 % 1012,5 hPa 0,0 l/m W 0,00 h 0 W/m 3,1 km/h (1 Bft)
09.07.2012 02:00 17,8 C 72 % 1012,5 hPa 0,0 l/m W 0,00 h 0 W/m 10,1 km/h (2 Bft)
09.07.2012 03:00 17,1 C 73 % 1012,7 hPa 0,0 l/m W 0,00 h 0 W/m 5,1 km/h (1 Bft)
09.07.2012 04:00 16,5 C 79 % 1012,8 hPa 0,0 l/m N 0,00 h 0 W/m 2,5 km/h (1 Bft)
09.07.2012 05:00 16,2 C 80 % 1013,2 hPa 0,0 l/m N 0,00 h 6 W/m 2,5 km/h (1 Bft)
09.07.2012 06:00 15,6 C 82 % 1013,2 hPa 0,0 l/m N 0,00 h 38 W/m 2,3 km/h (1 Bft)
09.07.2012 07:00 16,7 C 80 % 1013,2 hPa 0,0 l/m W 0,50 h 158 W/m 2,4 km/h (1 Bft)
09.07.2012 08:00 17,8 C 74 % 1013,2 hPa 0,0 l/m W 0,83 h 372 W/m 6,1 km/h (2 Bft)
09.07.2012 09:00 19,0 C 66 % 1013,0 hPa 0,0 l/m W-SW 0,92 h 519 W/m 9,9 km/h (2 Bft)
09.07.2012 10:00 19,9 C 60 % 1012,8 hPa 0,0 l/m W-SW 0,75 h 558 W/m 11,3 km/h (2 Bft)
09.07.2012 11:00 20,9 C 56 % 1012,7 hPa 0,0 l/m SW 0,75 h 621 W/m 11,0 km/h (2 Bft)
09.07.2012 12:00 22,3 C 52 % 1012,4 hPa 0,0 l/m W-SW 0,83 h 852 W/m 13,2 km/h (3 Bft)
09.07.2012 13:00 22,2 C 52 % 1012,1 hPa 0,0 l/m W 0,42 h 605 W/m 9,1 km/h (2 Bft)
09.07.2012 14:00 23,6 C 51 % 1011,7 hPa 0,0 l/m W-SW 0,67 h 784 W/m 14,5 km/h (3 Bft)
09.07.2012 15:00 23,8 C 51 % 1011,3 hPa 0,0 l/m W 0,50 h 585 W/m 17,7 km/h (3 Bft)
09.07.2012 16:00 23,6 C 53 % 1011,2 hPa 0,0 l/m W-NW 0,33 h 448 W/m 8,3 km/h (2 Bft)
09.07.2012 17:00 23,8 C 51 % 1010,9 hPa 0,0 l/m NW 0,50 h 430 W/m 12,9 km/h (3 Bft)
09.07.2012 18:00 24,0 C 49 % 1010,8 hPa 0,0 l/m W-NW 1,00 h 443 W/m 12,5 km/h (3 Bft)
09.07.2012 19:00 23,3 C 51 % 1010,8 hPa 0,0 l/m W-NW 1,00 h 246 W/m 6,3 km/h (2 Bft)
09.07.2012 20:00 20,9 C 65 % 1010,9 hPa 0,0 l/m W-NW 0,33 h 43 W/m 2,9 km/h (1 Bft)
09.07.2012 21:00 18,9 C 72 % 1011,2 hPa 0,0 l/m N 0,00 h 8 W/m 1,2 km/h (1 Bft)
09.07.2012 22:00 17,6 C 75 % 1011,9 hPa 0,0 l/m N 0,00 h 0 W/m 2,0 km/h (1 Bft)
09.07.2012 23:00 17,3 C 78 % 1012,1 hPa 0,0 l/m N 0,00 h 0 W/m 0,5 km/h (0 Bft)
10.07.2012 00:00 17,1 C 78 % 1012,2 hPa 0,0 l/m W-NW 0,00 h 0 W/m 1,1 km/h (0 Bft)
10.07.2012 01:00 16,6 C 82 % 1012,5 hPa 0,0 l/m N 0,00 h 0 W/m 1,9 km/h (1 Bft)
10.07.2012 02:00 16,0 C 84 % 1012,5 hPa 0,0 l/m N 0,00 h 0 W/m 0,9 km/h (0 Bft)
10.07.2012 03:00 15,4 C 88 % 1012,5 hPa 0,0 l/m N 0,00 h 0 W/m 0,9 km/h (0 Bft)
10.07.2012 04:00 15,0 C 91 % 1012,4 hPa 0,0 l/m N 0,00 h 0 W/m 0,3 km/h (0 Bft)
10.07.2012 05:00 15,0 C 91 % 1012,2 hPa 0,0 l/m N 0,00 h 7 W/m 0,3 km/h (0 Bft)
10.07.2012 06:00 15,2 C 92 % 1012,2 hPa 0,0 l/m N 0,00 h 21 W/m 1,1 km/h (0 Bft)
10.07.2012 07:00 16,4 C 88 % 1012,3 hPa 0,0 l/m W 0,50 h 151 W/m 1,3 km/h (1 Bft)
10.07.2012 08:00 18,5 C 81 % 1012,4 hPa 0,0 l/m W-SW 1,00 h 356 W/m 7,6 km/h (2 Bft)
10.07.2012 09:00 20,0 C 75 % 1012,5 hPa 0,0 l/m SW 1,00 h 528 W/m 13,7 km/h (3 Bft)
10.07.2012 10:00 20,8 C 72 % 1012,5 hPa 0,0 l/m S-SW 0,42 h 420 W/m 12,1 km/h (2 Bft)
10.07.2012 11:00 21,7 C 63 % 1012,5 hPa 0,0 l/m SW 0,42 h 508 W/m 10,7 km/h (2 Bft)
10.07.2012 12:00 23,3 C 54 % 1012,2 hPa 0,0 l/m W 0,75 h 789 W/m 13,2 km/h (3 Bft)
10.07.2012 13:00 23,8 C 55 % 1011,8 hPa 0,0 l/m SW 0,67 h 682 W/m 13,3 km/h (3 Bft)
10.07.2012 14:00 24,9 C 52 % 1011,1 hPa 0,0 l/m S-SW 1,00 h 933 W/m 16,0 km/h (3 Bft)
10.07.2012 15:00 25,3 C 49 % 1010,4 hPa 0,0 l/m SW 0,67 h 688 W/m 15,2 km/h (3 Bft)
10.07.2012 16:00 23,8 C 53 % 1010,3 hPa 0,0 l/m N-NO 0,25 h 287 W/m 8,7 km/h (2 Bft)
10.07.2012 17:00 19,4 C 78 % 1011,1 hPa 1,0 l/m SW 0,00 h 42 W/m 17,2 km/h (3 Bft)
10.07.2012 18:00 17,4 C 88 % 1011,0 hPa 1,2 l/m W 0,17 h 147 W/m 9,3 km/h (2 Bft)
10.07.2012 19:00 17,8 C 91 % 1011,1 hPa 0,0 l/m S 0,08 h 74 W/m 7,0 km/h (2 Bft)
10.07.2012 20:00 17,3 C 89 % 1011,3 hPa 0,0 l/m SW 0,00 h 13 W/m 10,6 km/h (2 Bft)
10.07.2012 21:00 16,4 C 91 % 1011,7 hPa 1,0 l/m W 0,00 h 0 W/m 11,8 km/h (2 Bft)
10.07.2012 22:00 16,0 C 94 % 1012,1 hPa 0,0 l/m W-SW 0,00 h 0 W/m 3,5 km/h (1 Bft)
10.07.2012 23:00 16,0 C 94 % 1012,6 hPa 0,0 l/m W-SW 0,00 h 0 W/m 3,7 km/h (1 Bft)
11.07.2012 00:00 15,8 C 94 % 1012,7 hPa 0,2 l/m W-SW 0,00 h 0 W/m 4,1 km/h (1 Bft)
11.07.2012 01:00 15,5 C 96 % 1012,5 hPa 0,0 l/m W-SW 0,00 h 0 W/m 6,3 km/h (2 Bft)
11.07.2012 02:00 15,5 C 95 % 1012,2 hPa 0,0 l/m SW 0,00 h 0 W/m 10,1 km/h (2 Bft)
11.07.2012 03:00 15,4 C 96 % 1012,3 hPa 0,0 l/m N 0,00 h 0 W/m 2,7 km/h (1 Bft)
11.07.2012 04:00 15,1 C 97 % 1012,4 hPa 1,8 l/m W-SW 0,00 h 0 W/m 5,9 km/h (2 Bft)
11.07.2012 05:00 15,3 C 98 % 1012,6 hPa 0,2 l/m W-SW 0,00 h 5 W/m 5,5 km/h (1 Bft)
11.07.2012 06:00 15,3 C 98 % 1012,9 hPa 0,8 l/m W-SW 0,08 h 26 W/m 7,6 km/h (2 Bft)
11.07.2012 07:00 13,8 C 95 % 1013,7 hPa 1,4 l/m N-NW 0,00 h 41 W/m 10,3 km/h (2 Bft)
11.07.2012 08:00 13,7 C 94 % 1014,1 hPa 0,0 l/m N-NW 0,00 h 70 W/m 4,3 km/h (1 Bft)
11.07.2012 09:00 14,8 C 92 % 1014,4 hPa 0,2 l/m S-SW 0,00 h 173 W/m 3,7 km/h (1 Bft)
11.07.2012 10:00 16,2 C 89 % 1014,4 hPa 0,0 l/m S-SW 0,17 h 326 W/m 6,4 km/h (2 Bft)
11.07.2012 11:00 16,6 C 88 % 1014,2 hPa 0,0 l/m S-SW 0,00 h 163 W/m 7,4 km/h (2 Bft)
11.07.2012 12:00 17,7 C 84 % 1013,9 hPa 0,0 l/m W-SW 0,17 h 395 W/m 10,9 km/h (2 Bft)
11.07.2012 13:00 19,8 C 74 % 1013,5 hPa 0,0 l/m SW 0,67 h 770 W/m 18,2 km/h (3 Bft)
11.07.2012 14:00 20,3 C 71 % 1013,2 hPa 0,0 l/m SW 0,67 h 678 W/m 16,4 km/h (3 Bft)
11.07.2012 15:00 21,1 C 63 % 1012,9 hPa 0,0 l/m W-SW 0,92 h 876 W/m 25,2 km/h (4 Bft)
11.07.2012 16:00 21,3 C 60 % 1012,7 hPa 0,0 l/m W 0,58 h 514 W/m 23,2 km/h (4 Bft)
11.07.2012 17:00 21,3 C 59 % 1012,3 hPa 0,0 l/m W 0,75 h 469 W/m 22,7 km/h (4 Bft)
11.07.2012 18:00 20,2 C 61 % 1012,4 hPa 0,0 l/m W 0,33 h 200 W/m 20,4 km/h (4 Bft)
11.07.2012 19:00 18,5 C 60 % 1012,9 hPa 0,0 l/m W-NW 0,17 h 93 W/m 17,3 km/h (3 Bft)
11.07.2012 20:00 17,1 C 58 % 1013,4 hPa 0,0 l/m W-NW 0,00 h 31 W/m 16,9 km/h (3 Bft)
11.07.2012 21:00 16,3 C 60 % 1013,9 hPa 0,0 l/m W 0,00 h 0 W/m 10,3 km/h (2 Bft)
11.07.2012 22:00 15,4 C 64 % 1014,6 hPa 0,0 l/m W 0,00 h 0 W/m 11,8 km/h (2 Bft)
11.07.2012 23:00 15,2 C 65 % 1015,4 hPa 0,0 l/m W 0,00 h 0 W/m 11,3 km/h (2 Bft)
12.07.2012 00:00 14,8 C 68 % 1015,8 hPa 0,0 l/m W 0,00 h 0 W/m 7,2 km/h (2 Bft)
12.07.2012 01:00 14,3 C 73 % 1015,8 hPa 0,0 l/m W-SW 0,00 h 0 W/m 10,2 km/h (2 Bft)
12.07.2012 02:00 13,8 C 75 % 1015,7 hPa 0,0 l/m W-SW 0,00 h 0 W/m 12,0 km/h (2 Bft)
12.07.2012 03:00 12,8 C 80 % 1016,0 hPa 0,0 l/m W-SW 0,00 h 0 W/m 7,9 km/h (2 Bft)
12.07.2012 04:00 12,7 C 80 % 1015,9 hPa 0,0 l/m W-SW 0,00 h 0 W/m 9,7 km/h (2 Bft)
12.07.2012 05:00 12,8 C 80 % 1015,8 hPa 0,0 l/m W-SW 0,00 h 8 W/m 11,4 km/h (2 Bft)
12.07.2012 06:00 12,8 C 84 % 1016,0 hPa 0,2 l/m W-SW 0,00 h 20 W/m 8,2 km/h (2 Bft)
12.07.2012 07:00 12,9 C 88 % 1015,9 hPa 0,0 l/m W-SW 0,25 h 111 W/m 12,2 km/h (2 Bft)
12.07.2012 08:00 13,7 C 82 % 1016,1 hPa 0,0 l/m W-SW 0,00 h 87 W/m 18,4 km/h (3 Bft)
12.07.2012 09:00 14,5 C 77 % 1016,5 hPa 0,0 l/m W-SW 0,08 h 222 W/m 21,2 km/h (4 Bft)
12.07.2012 10:00 15,3 C 75 % 1016,4 hPa 0,0 l/m W 0,17 h 296 W/m 18,8 km/h (3 Bft)
12.07.2012 11:00 15,4 C 76 % 1016,2 hPa 0,0 l/m W 0,08 h 145 W/m 15,8 km/h (3 Bft)
12.07.2012 12:00 15,0 C 78 % 1016,2 hPa 0,0 l/m W 0,08 h 251 W/m 16,1 km/h (3 Bft)
12.07.2012 13:00 17,7 C 68 % 1015,6 hPa 0,0 l/m W 0,67 h 762 W/m 20,1 km/h (4 Bft)
12.07.2012 14:00 17,2 C 67 % 1015,6 hPa 0,0 l/m W-SW 0,00 h 202 W/m 18,6 km/h (3 Bft)
12.07.2012 15:00 15,5 C 74 % 1016,1 hPa 0,0 l/m W-NW 0,08 h 228 W/m 19,7 km/h (3 Bft)
12.07.2012 16:00 17,4 C 63 % 1015,6 hPa 0,0 l/m W 0,83 h 668 W/m 25,5 km/h (4 Bft)
12.07.2012 17:00 17,7 C 59 % 1015,6 hPa 0,0 l/m W 0,33 h 241 W/m 21,3 km/h (4 Bft)
12.07.2012 18:00 17,5 C 61 % 1015,6 hPa 0,0 l/m W-SW 0,08 h 168 W/m 15,8 km/h (3 Bft)
12.07.2012 19:00 16,6 C 67 % 1015,7 hPa 0,0 l/m SW 0,00 h 78 W/m 12,8 km/h (3 Bft)
12.07.2012 20:00 15,7 C 71 % 1015,6 hPa 0,0 l/m SW 0,33 h 60 W/m 12,5 km/h (3 Bft)
12.07.2012 21:00 14,3 C 77 % 1015,6 hPa 0,0 l/m W-SW 0,00 h 6 W/m 8,9 km/h (2 Bft)
12.07.2012 22:00 14,2 C 80 % 1015,8 hPa 0,0 l/m SW 0,00 h 0 W/m 5,2 km/h (1 Bft)
12.07.2012 23:00 13,9 C 83 % 1015,3 hPa 0,0 l/m N 0,00 h 0 W/m 0,9 km/h (0 Bft)
13.07.2012 00:00 13,3 C 86 % 1014,7 hPa 0,0 l/m N 0,00 h 0 W/m 0,9 km/h (0 Bft)
13.07.2012 01:00 12,9 C 89 % 1013,9 hPa 0,0 l/m N 0,00 h 0 W/m 0,1 km/h (0 Bft)
13.07.2012 02:00 12,7 C 91 % 1013,3 hPa 0,0 l/m N 0,00 h 0 W/m 0,4 km/h (0 Bft)
13.07.2012 03:00 12,3 C 94 % 1012,4 hPa 0,2 l/m N 0,00 h 0 W/m 0,7 km/h (0 Bft)
13.07.2012 04:00 11,8 C 96 % 1011,7 hPa 0,0 l/m N 0,00 h 0 W/m 0,8 km/h (0 Bft)
13.07.2012 05:00 11,6 C 96 % 1011,7 hPa 0,4 l/m N 0,00 h 6 W/m 0,9 km/h (0 Bft)
13.07.2012 06:00 11,5 C 96 % 1011,6 hPa 0,2 l/m SW 0,00 h 18 W/m 1,7 km/h (1 Bft)
13.07.2012 07:00 11,9 C 94 % 1011,6 hPa 0,4 l/m W 0,00 h 38 W/m 5,6 km/h (1 Bft)
13.07.2012 08:00 12,8 C 94 % 1011,3 hPa 0,0 l/m SW 0,17 h 152 W/m 10,3 km/h (2 Bft)
13.07.2012 09:00 14,1 C 89 % 1011,0 hPa 0,0 l/m SW 0,08 h 176 W/m 12,9 km/h (3 Bft)
13.07.2012 10:00 14,8 C 86 % 1011,0 hPa 0,0 l/m SW 0,00 h 226 W/m 14,6 km/h (3 Bft)
13.07.2012 11:00 16,7 C 79 % 1010,6 hPa 0,0 l/m SW 0,58 h 557 W/m 18,2 km/h (3 Bft)
13.07.2012 12:00 17,6 C 73 % 1010,1 hPa 0,0 l/m W-SW 0,17 h 331 W/m 18,6 km/h (3 Bft)
13.07.2012 13:00 18,3 C 72 % 1009,3 hPa 0,0 l/m W-SW 0,42 h 653 W/m 19,2 km/h (3 Bft)
13.07.2012 14:00 19,6 C 64 % 1008,7 hPa 0,0 l/m W-SW 0,42 h 585 W/m 27,2 km/h (4 Bft)
13.07.2012 15:00 20,2 C 62 % 1008,0 hPa 0,0 l/m W-NW 0,58 h 584 W/m 20,8 km/h (4 Bft)
13.07.2012 16:00 20,9 C 59 % 1007,1 hPa 0,0 l/m W 0,75 h 536 W/m 21,3 km/h (4 Bft)
13.07.2012 17:00 20,2 C 61 % 1006,8 hPa 0,0 l/m W-SW 0,00 h 177 W/m 14,1 km/h (3 Bft)
13.07.2012 18:00 19,5 C 67 % 1006,3 hPa 0,0 l/m W-SW 0,00 h 76 W/m 6,2 km/h (2 Bft)
13.07.2012 19:00 18,3 C 74 % 1005,7 hPa 0,0 l/m W-SW 0,00 h 30 W/m 2,3 km/h (1 Bft)
13.07.2012 20:00 16,9 C 81 % 1006,0 hPa 0,6 l/m W-SW 0,00 h 9 W/m 11,7 km/h (2 Bft)
13.07.2012 21:00 14,8 C 92 % 1006,2 hPa 2,6 l/m SW 0,00 h 0 W/m 12,8 km/h (3 Bft)
13.07.2012 22:00 14,3 C 96 % 1006,3 hPa 1,8 l/m SW 0,00 h 0 W/m 10,5 km/h (2 Bft)
13.07.2012 23:00 14,3 C 97 % 1006,0 hPa 0,6 l/m SW 0,00 h 0 W/m 9,9 km/h (2 Bft)
14.07.2012 00:00 14,4 C 98 % 1005,5 hPa 0,6 l/m SW 0,00 h 0 W/m 14,2 km/h (3 Bft)
14.07.2012 01:00 14,0 C 98 % 1004,7 hPa 0,0 l/m SW 0,00 h 0 W/m 7,2 km/h (2 Bft)
14.07.2012 02:00 13,9 C 98 % 1004,2 hPa 0,0 l/m SW 0,00 h 0 W/m 9,7 km/h (2 Bft)
14.07.2012 03:00 13,9 C 98 % 1004,0 hPa 0,2 l/m SW 0,00 h 0 W/m 12,2 km/h (2 Bft)
14.07.2012 04:00 14,3 C 98 % 1004,1 hPa 0,0 l/m SW 0,00 h 0 W/m 17,0 km/h (3 Bft)
14.07.2012 05:00 14,2 C 98 % 1004,1 hPa 0,0 l/m SW 0,00 h 6 W/m 13,9 km/h (3 Bft)
14.07.2012 06:00 14,2 C 98 % 1004,4 hPa 0,0 l/m SW 0,08 h 27 W/m 12,0 km/h (2 Bft)
14.07.2012 07:00 15,1 C 96 % 1004,9 hPa 0,8 l/m W-SW 0,33 h 114 W/m 20,4 km/h (4 Bft)
14.07.2012 08:00 16,5 C 89 % 1005,4 hPa 0,0 l/m W 0,58 h 257 W/m 28,0 km/h (4 Bft)
14.07.2012 09:00 16,5 C 84 % 1006,3 hPa 0,0 l/m W 0,00 h 169 W/m 28,8 km/h (5 Bft)
14.07.2012 10:00 17,3 C 76 % 1006,9 hPa 0,0 l/m W 0,25 h 345 W/m 31,4 km/h (5 Bft)
14.07.2012 11:00 18,0 C 69 % 1007,6 hPa 0,0 l/m W 0,25 h 452 W/m 33,4 km/h (5 Bft)
14.07.2012 12:00 19,3 C 58 % 1008,1 hPa 0,0 l/m W 0,67 h 757 W/m 41,8 km/h (6 Bft)
14.07.2012 13:00 20,3 C 53 % 1008,5 hPa 0,0 l/m W-NW 1,00 h 911 W/m 39,2 km/h (6 Bft)
14.07.2012 14:00 20,6 C 49 % 1008,8 hPa 0,0 l/m W 1,00 h 896 W/m 39,7 km/h (6 Bft)
14.07.2012 15:00 20,6 C 48 % 1009,0 hPa 0,0 l/m W 0,75 h 678 W/m 29,8 km/h (5 Bft)
14.07.2012 16:00 21,2 C 44 % 1008,9 hPa 0,0 l/m W-SW 1,00 h 711 W/m 28,7 km/h (4 Bft)
14.07.2012 17:00 20,9 C 46 % 1009,1 hPa 0,0 l/m W-NW 1,00 h 570 W/m 21,4 km/h (4 Bft)
14.07.2012 18:00 20,4 C 47 % 1009,2 hPa 0,0 l/m W-NW 1,00 h 379 W/m 17,8 km/h (3 Bft)
14.07.2012 19:00 19,4 C 50 % 1009,0 hPa 0,0 l/m W-NW 1,00 h 204 W/m 13,1 km/h (3 Bft)
14.07.2012 20:00 17,7 C 60 % 1009,2 hPa 0,0 l/m W-NW 0,08 h 42 W/m 4,8 km/h (1 Bft)
14.07.2012 21:00 16,5 C 66 % 1009,8 hPa 0,0 l/m W-NW 0,08 h 9 W/m 3,5 km/h (1 Bft)
14.07.2012 22:00 16,2 C 64 % 1010,3 hPa 0,0 l/m W-NW 0,00 h 0 W/m 6,7 km/h (2 Bft)
14.07.2012 23:00 15,6 C 66 % 1010,5 hPa 0,0 l/m W-NW 0,00 h 0 W/m 6,3 km/h (2 Bft)
15.07.2012 00:00 14,7 C 74 % 1010,8 hPa 0,0 l/m W-NW 0,00 h 0 W/m 2,1 km/h (1 Bft)
15.07.2012 01:00 14,4 C 74 % 1011,1 hPa 0,0 l/m W 0,00 h 0 W/m 8,3 km/h (2 Bft)
15.07.2012 02:00 13,5 C 76 % 1011,1 hPa 0,0 l/m W 0,00 h 0 W/m 9,4 km/h (2 Bft)
15.07.2012 03:00 12,6 C 80 % 1011,2 hPa 0,0 l/m W 0,00 h 0 W/m 3,7 km/h (1 Bft)
15.07.2012 04:00 12,1 C 85 % 1011,0 hPa 0,0 l/m W 0,00 h 0 W/m 3,9 km/h (1 Bft)
15.07.2012 05:00 11,9 C 87 % 1011,6 hPa 0,0 l/m W-SW 0,00 h 7 W/m 5,7 km/h (1 Bft)
15.07.2012 06:00 12,6 C 82 % 1012,1 hPa 0,0 l/m W-SW 0,00 h 32 W/m 14,0 km/h (3 Bft)
15.07.2012 07:00 13,1 C 83 % 1012,3 hPa 0,0 l/m W-SW 0,00 h 60 W/m 16,0 km/h (3 Bft)
15.07.2012 08:00 13,9 C 81 % 1012,7 hPa 0,0 l/m W-SW 0,08 h 200 W/m 18,9 km/h (3 Bft)
15.07.2012 09:00 15,5 C 75 % 1012,8 hPa 0,0 l/m W-SW 0,83 h 471 W/m 20,9 km/h (4 Bft)
15.07.2012 10:00 16,4 C 68 % 1012,8 hPa 0,0 l/m W 0,50 h 507 W/m 23,9 km/h (4 Bft)
15.07.2012 11:00 17,6 C 64 % 1012,7 hPa 0,0 l/m W 0,42 h 499 W/m 25,3 km/h (4 Bft)
15.07.2012 12:00 18,6 C 58 % 1012,8 hPa 0,0 l/m W 0,75 h 724 W/m 28,7 km/h (4 Bft)
15.07.2012 13:00 18,6 C 61 % 1013,0 hPa 0,0 l/m W-SW 0,25 h 475 W/m 28,7 km/h (4 Bft)
15.07.2012 14:00 15,4 C 78 % 1013,8 hPa 1,8 l/m W 0,08 h 224 W/m 15,3 km/h (3 Bft)
15.07.2012 15:00 13,1 C 90 % 1014,5 hPa 10,2 l/m N 0,17 h 218 W/m 5,8 km/h (2 Bft)
15.07.2012 16:00 15,3 C 82 % 1015,0 hPa 0,0 l/m N 0,75 h 591 W/m 2,5 km/h (1 Bft)
15.07.2012 17:00 15,7 C 82 % 1015,3 hPa 0,0 l/m S-SW 0,08 h 208 W/m 13,3 km/h (3 Bft)
15.07.2012 18:00 14,9 C 88 % 1015,8 hPa 0,4 l/m SW 0,00 h 71 W/m 8,6 km/h (2 Bft)
15.07.2012 19:00 13,9 C 87 % 1016,7 hPa 0,0 l/m W-SW 0,00 h 44 W/m 9,8 km/h (2 Bft)
15.07.2012 20:00 12,4 C 84 % 1017,8 hPa 0,0 l/m W 0,00 h 13 W/m 10,5 km/h (2 Bft)
15.07.2012 21:00 11,9 C 88 % 1019,0 hPa 0,0 l/m W-SW 0,00 h 5 W/m 11,8 km/h (2 Bft)
15.07.2012 22:00 11,4 C 91 % 1020,1 hPa 0,0 l/m SW 0,00 h 0 W/m 14,9 km/h (3 Bft)
15.07.2012 23:00 11,1 C 93 % 1020,7 hPa 0,0 l/m SW 0,00 h 0 W/m 12,2 km/h (2 Bft)
Min-Datum _ 15.07.12 14.07.12 14.07.12 - - - - 09.07.12
_ Min-Zeit 23:45 16:50 03:45 - - - - 00:20
Minimum _ 10,9 C 41 % 1003,9 hPa - - - - 0,0 km/h (0 Bft)
Max-Datum _ 10.07.12 14.07.12 15.07.12 15.07.12 - 09.07.12 12.07.12 14.07.12
_ Max-Zeit 15:40 03:35 23:55 15:05 - 07:05 13:15 12:35
Maximum _ 25,8 C 99 % 1021,0 hPa 10,2 l/m - 0,08 h 1136 W/m 51,5 km/h
W (7 Bft)
Durchschnitt _ 16,7 C 76 % 1012,0 hPa #28,8 l/m W-SW #39:55 h 308 W/m 11,9 km/h (2 Bft)